createdAt,value
2024-01-15T00:00:31.994Z,5.47
2024-01-15T00:05:33.370Z,5.93
2024-01-15T00:10:34.766Z,7.22
2024-01-15T00:15:36.245Z,6.18
2024-01-15T00:20:37.657Z,5.40
2024-01-15T00:25:39.158Z,5.22
2024-01-15T00:30:40.654Z,5.35
2024-01-15T00:35:42.653Z,4.90
2024-01-15T00:40:44.058Z,6.43
2024-01-15T00:45:46.033Z,7.07
2024-01-15T00:50:47.443Z,7.25
2024-01-15T00:55:49.752Z,6.53
2024-01-15T01:00:51.242Z,6.18
2024-01-15T01:05:52.738Z,6.13
2024-01-15T01:10:54.164Z,6.63
2024-01-15T01:15:55.584Z,7.28
2024-01-15T01:20:56.976Z,5.82
2024-01-15T01:25:58.467Z,5.85
2024-01-15T01:31:01.205Z,5.47
2024-01-15T01:36:08.462Z,6.20
2024-01-15T01:41:11.330Z,6.03
2024-01-15T01:46:12.837Z,5.78
2024-01-15T01:51:14.692Z,6.45
2024-01-15T01:56:16.702Z,4.65
2024-01-15T02:01:19.367Z,6.22
2024-01-15T02:06:20.944Z,6.40
2024-01-15T02:11:22.631Z,6.40
2024-01-15T02:16:24.092Z,7.00
2024-01-15T02:21:27.547Z,6.07
2024-01-15T02:26:29.332Z,6.47
2024-01-15T02:31:30.832Z,5.90
2024-01-15T02:36:32.545Z,5.75
2024-01-15T02:41:33.935Z,6.10
2024-01-15T02:46:35.378Z,5.65
2024-01-15T02:51:36.796Z,6.55
2024-01-15T02:56:38.228Z,7.85
2024-01-15T03:01:39.673Z,5.82
2024-01-15T03:06:41.161Z,7.72
2024-01-15T03:11:42.604Z,4.95
2024-01-15T03:16:44.027Z,6.03
2024-01-15T03:21:45.524Z,7.07
2024-01-15T03:26:46.903Z,7.40
2024-01-15T03:31:48.466Z,6.05
2024-01-15T03:36:49.927Z,7.35
2024-01-15T03:41:51.435Z,6.07
2024-01-15T03:46:52.892Z,5.10
2024-01-15T03:51:54.363Z,5.28
2024-01-15T03:56:55.723Z,6.15
2024-01-15T04:01:57.226Z,5.78
2024-01-15T04:06:58.627Z,6.70
2024-01-15T04:12:00.014Z,5.32
2024-01-15T04:17:01.448Z,6.80
2024-01-15T04:22:02.843Z,6.70
2024-01-15T04:27:04.757Z,5.60
2024-01-15T04:32:06.545Z,6.82
2024-01-15T04:37:08.205Z,6.18
2024-01-15T04:42:09.678Z,5.55
2024-01-15T04:47:11.108Z,5.68
2024-01-15T04:52:13.543Z,6.50
2024-01-15T04:57:14.944Z,5.47
2024-01-15T05:02:16.609Z,6.63
2024-01-15T05:07:17.984Z,5.55
2024-01-15T05:12:19.475Z,5.72
2024-01-15T05:17:20.909Z,4.85
2024-01-15T05:22:22.355Z,6.07
2024-01-15T05:27:23.857Z,5.85
2024-01-15T05:32:25.298Z,5.65
2024-01-15T05:37:26.863Z,5.90
2024-01-15T05:42:31.022Z,6.28
2024-01-15T05:47:32.794Z,5.88
2024-01-15T05:52:34.243Z,7.22
2024-01-15T05:57:35.728Z,5.80
2024-01-15T06:02:38.846Z,6.45
2024-01-15T06:07:40.356Z,5.03
2024-01-15T06:12:42.044Z,4.95
2024-01-15T06:17:43.491Z,5.35
2024-01-15T06:22:44.952Z,6.05
2024-01-15T06:27:46.388Z,5.60
2024-01-15T06:32:48.035Z,5.53
2024-01-15T06:37:49.457Z,7.15
2024-01-15T06:42:50.948Z,7.35
2024-01-15T06:47:52.386Z,7.10
2024-01-15T06:52:54.092Z,5.38
2024-01-15T06:57:55.621Z,6.43
2024-01-15T07:02:57.883Z,6.97
2024-01-15T07:07:59.797Z,6.68
2024-01-15T07:13:01.277Z,7.05
2024-01-15T07:18:03.065Z,7.78
2024-01-15T07:23:05.148Z,7.47
2024-01-15T07:28:06.802Z,8.75
2024-01-15T07:33:08.412Z,8.15
2024-01-15T07:38:11.173Z,7.50
2024-01-15T07:43:12.585Z,7.03
2024-01-15T07:48:14.117Z,6.55
2024-01-15T07:53:15.599Z,7.40
2024-01-15T07:58:17.368Z,6.95
2024-01-15T08:03:18.989Z,6.38
2024-01-15T08:08:22.336Z,7.20
2024-01-15T08:13:23.780Z,7.03
2024-01-15T08:18:26.473Z,6.78
2024-01-15T08:23:29.184Z,6.95
2024-01-15T08:28:30.903Z,8.68
2024-01-15T08:33:32.484Z,7.25
2024-01-15T08:38:33.930Z,7.53
2024-01-15T08:43:35.833Z,7.60
2024-01-15T08:48:37.719Z,8.40
2024-01-15T08:53:40.304Z,8.32
2024-01-15T08:58:41.721Z,8.15
2024-01-15T09:03:43.942Z,6.97
2024-01-15T09:08:45.746Z,6.95
2024-01-15T09:13:47.102Z,8.05
2024-01-15T09:18:48.567Z,7.57
2024-01-15T09:23:50.017Z,6.20
2024-01-15T09:28:51.563Z,7.05
2024-01-15T09:33:57.121Z,6.22
2024-01-15T09:38:58.703Z,6.78
2024-01-15T09:44:00.218Z,7.13
2024-01-15T09:49:03.078Z,7.38
2024-01-15T09:54:05.132Z,6.72
2024-01-15T09:59:07.383Z,7.43
2024-01-15T10:04:08.934Z,7.03
2024-01-15T10:09:10.485Z,5.95
2024-01-15T10:14:15.585Z,7.72
2024-01-15T10:19:17.099Z,7.30
2024-01-15T10:24:18.631Z,6.18
2024-01-15T10:29:20.442Z,6.72
2024-01-15T10:34:21.944Z,6.70
2024-01-15T10:39:24.438Z,6.22
2024-01-15T10:44:26.615Z,6.13
2024-01-15T10:49:32.553Z,5.63
2024-01-15T10:54:37.858Z,6.53
2024-01-15T10:59:39.805Z,5.72
2024-01-15T11:04:43.741Z,6.25
2024-01-15T11:09:47.484Z,6.82
2024-01-15T11:14:50.476Z,7.03
2024-01-15T11:19:53.416Z,6.63
2024-01-15T11:24:55.294Z,5.32
2024-01-15T11:30:10.435Z,5.80
2024-01-15T11:35:12.330Z,5.43
2024-01-15T11:40:15.446Z,6.18
2024-01-15T11:45:21.364Z,7.32
2024-01-15T11:50:23.076Z,5.65
2024-01-15T11:55:46.222Z,4.50
2024-01-15T12:00:53.535Z,5.45
2024-01-15T12:05:55.313Z,4.90
2024-01-15T12:10:58.257Z,6.53
2024-01-15T12:16:03.638Z,5.68
2024-01-15T12:21:05.316Z,5.80
2024-01-15T12:26:06.903Z,5.55
2024-01-15T12:53:07.417Z,2.67
2024-01-15T12:58:09.834Z,3.00
2024-01-15T13:03:11.932Z,3.40
2024-01-15T13:08:15.006Z,2.95
2024-01-15T13:13:16.812Z,2.97
2024-01-15T13:18:18.693Z,2.42
2024-01-15T13:23:21.990Z,3.30
2024-01-15T13:28:24.427Z,2.13
2024-01-15T13:33:26.779Z,2.20
2024-01-15T13:38:28.881Z,1.80
2024-01-15T13:43:30.411Z,1.77
2024-01-15T13:48:35.291Z,1.48
2024-01-15T13:53:39.295Z,1.05
2024-01-15T13:58:40.869Z,1.48
2024-01-15T14:03:42.749Z,0.60
2024-01-15T14:08:44.302Z,0.85
2024-01-15T14:13:46.190Z,0.55
2024-01-15T14:18:48.668Z,0.73
2024-01-15T14:23:50.292Z,1.02
2024-01-15T14:28:52.188Z,0.80
2024-01-15T14:33:54.009Z,0.95
2024-01-15T14:38:55.622Z,0.80
2024-01-15T14:43:58.430Z,1.10
2024-01-15T14:49:00.097Z,0.90
2024-01-15T14:54:01.727Z,1.00
2024-01-15T14:59:03.815Z,0.60
2024-01-15T15:04:05.493Z,0.60
2024-01-15T15:09:10.928Z,0.80
2024-01-15T15:14:12.582Z,0.70
2024-01-15T15:19:14.224Z,0.80
2024-01-15T15:24:15.808Z,0.88
2024-01-15T15:29:18.280Z,0.50
2024-01-15T15:34:19.980Z,1.35
2024-01-15T15:39:21.756Z,1.38
2024-01-15T15:44:23.555Z,1.48
2024-01-15T15:49:25.204Z,1.67
2024-01-15T15:54:27.376Z,1.23
2024-01-15T15:59:29.031Z,1.30
2024-01-15T16:04:30.791Z,1.27
2024-01-15T16:09:32.390Z,2.10
2024-01-15T16:14:34.321Z,1.48
2024-01-15T16:23:26.180Z,1.05
2024-01-15T16:25:00.648Z,0.75
2024-01-15T16:30:12.306Z,0.95
2024-01-15T16:35:20.067Z,0.93
2024-01-15T16:40:21.939Z,1.00
2024-01-15T16:45:23.530Z,0.60
2024-01-15T16:50:25.182Z,1.02
2024-01-15T16:55:26.751Z,0.50
2024-01-15T17:00:28.447Z,0.70
2024-01-15T17:05:30.042Z,1.40
2024-01-15T17:10:32.280Z,0.60
2024-01-15T17:15:34.119Z,0.70
2024-01-15T17:20:35.787Z,0.63
2024-01-15T17:25:37.884Z,0.60
2024-01-15T17:30:40.202Z,0.63
2024-01-15T17:35:51.490Z,2.85
2024-01-15T17:40:53.214Z,0.50
2024-01-15T17:45:56.423Z,0.90
2024-01-15T17:51:00.554Z,0.50
2024-01-15T17:56:02.174Z,0.30
2024-01-15T18:01:06.301Z,0.40
2024-01-15T18:06:08.036Z,0.60
2024-01-15T18:11:16.664Z,0.40
2024-01-15T18:16:23.582Z,0.40
2024-01-15T18:21:26.614Z,0.30
2024-01-15T18:26:28.419Z,0.70
2024-01-15T18:31:30.944Z,0.30
2024-01-15T18:36:32.521Z,0.40
2024-01-15T18:41:34.597Z,0.55
2024-01-15T18:46:36.424Z,0.60
2024-01-15T18:51:38.008Z,0.43
2024-01-15T18:56:42.910Z,0.40
2024-01-15T19:01:45.377Z,0.60
2024-01-15T19:06:49.424Z,0.75
2024-01-15T19:11:51.337Z,0.95
2024-01-15T19:16:53.749Z,0.75
2024-01-15T19:21:55.328Z,0.98
2024-01-15T19:26:56.904Z,1.17
2024-01-15T19:32:02.117Z,1.42
2024-01-15T19:37:03.888Z,0.70
2024-01-15T19:42:05.726Z,0.50
2024-01-15T19:47:07.407Z,1.30
2024-01-15T19:52:10.305Z,0.63
2024-01-15T19:57:12.475Z,0.80
2024-01-15T20:02:14.246Z,0.50
2024-01-15T20:07:15.845Z,1.20
2024-01-15T20:12:17.759Z,0.68
2024-01-15T20:17:19.515Z,0.57
2024-01-15T20:22:21.219Z,0.60
2024-01-15T20:27:23.003Z,0.65
2024-01-15T20:32:24.952Z,0.50
2024-01-15T20:37:28.509Z,0.57
2024-01-15T20:42:30.969Z,1.33
2024-01-15T20:47:33.694Z,0.40
2024-01-15T20:52:36.571Z,0.30
2024-01-15T20:57:38.215Z,0.70
2024-01-15T21:02:40.245Z,0.60
2024-01-15T21:07:43.019Z,0.40
2024-01-15T21:12:45.297Z,1.13
2024-01-15T21:17:50.015Z,0.60
2024-01-15T21:22:52.208Z,0.30
2024-01-15T21:27:54.206Z,0.35
2024-01-15T21:32:56.191Z,0.40
2024-01-15T21:37:58.097Z,0.40
2024-01-15T21:42:59.658Z,0.60
2024-01-15T21:48:01.712Z,0.30
2024-01-15T21:53:03.543Z,0.47
2024-01-15T21:58:05.133Z,2.30
2024-01-15T22:03:07.022Z,0.60
2024-01-15T22:08:08.662Z,0.30
2024-01-15T22:13:10.303Z,0.30
2024-01-15T22:18:12.515Z,0.50
2024-01-15T22:23:14.190Z,0.90
2024-01-15T22:28:16.345Z,0.50
2024-01-15T22:33:18.082Z,0.70
2024-01-15T22:38:20.133Z,0.90
2024-01-15T22:43:21.928Z,0.50
2024-01-15T22:48:23.700Z,0.57
2024-01-15T22:53:25.620Z,0.63
2024-01-15T22:58:27.242Z,0.40
2024-01-15T23:03:28.862Z,0.50
2024-01-15T23:08:30.527Z,1.40
2024-01-15T23:13:32.246Z,0.90
2024-01-15T23:18:33.812Z,0.65
2024-01-15T23:23:35.647Z,0.95
2024-01-15T23:28:37.304Z,0.85
2024-01-15T23:33:39.599Z,0.30
2024-01-15T23:38:42.075Z,0.40
2024-01-15T23:43:43.751Z,0.32
2024-01-15T23:48:46.842Z,0.47
2024-01-15T23:53:50.054Z,0.40
2024-01-15T23:58:51.703Z,0.80
